Time;durP1;ratioP1;P1;durP2;ratioP2;P2;SDS_P1;SDS_P2;PMS_P1;PMS_P2;Temp;Humidity;BMP_temperature;BMP_pressure;BME280_temperature;BME280_humidity;BME280_pressure;Samples;Min_cycle;Max_cycle;Signal;HPM_P1;HPM_P2
2022/04/05 00:01:53;;;;;;;7.47;4.03;;;22.90;99.90;;;;;;5076752;28;20094;-76
2022/04/05 00:04:20;;;;;;;4.45;3.28;;;23.00;99.90;;;;;;5075297;28;20075;-77
2022/04/05 00:06:47;;;;;;;5.43;3.17;;;23.20;99.90;;;;;;5075302;28;20021;-75
2022/04/05 00:09:15;;;;;;;4.47;3.80;;;23.20;99.90;;;;;;5075231;28;20029;-76
2022/04/05 00:11:42;;;;;;;4.63;3.15;;;23.20;99.90;;;;;;5080506;28;20027;-76
2022/04/05 00:14:09;;;;;;;4.07;3.40;;;23.30;99.90;;;;;;5074525;28;20484;-76
2022/04/05 00:16:37;;;;;;;5.93;3.67;;;23.40;99.90;;;;;;5078282;28;20103;-76
2022/04/05 00:19:04;;;;;;;5.00;2.92;;;23.40;99.90;;;;;;5076446;28;20112;-77
2022/04/05 00:21:32;;;;;;;3.35;2.92;;;23.30;99.90;;;;;;5075800;28;20135;-77
2022/04/05 00:23:59;;;;;;;4.45;3.20;;;23.40;99.90;;;;;;5075539;28;20473;-77
2022/04/05 00:26:26;;;;;;;5.13;3.35;;;23.40;99.90;;;;;;5078288;28;20020;-78
2022/04/05 00:28:54;;;;;;;5.38;3.25;;;23.60;99.90;;;;;;5073648;28;20024;-77
2022/04/05 00:31:21;;;;;;;4.22;3.47;;;23.90;99.90;;;;;;5073385;28;20044;-78
2022/04/05 00:33:48;;;;;;;5.47;3.05;;;24.20;99.90;;;;;;5073575;28;20073;-78
2022/04/05 00:36:17;;;;;;;6.45;3.17;;;24.20;99.90;;;;;;5073306;28;20154;-78
2022/04/05 00:38:44;;;;;;;3.90;2.40;;;24.00;99.90;;;;;;5073190;28;20416;-79
2022/04/05 00:41:12;;;;;;;4.63;3.20;;;24.00;99.90;;;;;;5073691;28;20485;-78
2022/04/05 00:43:40;;;;;;;4.03;3.08;;;24.20;99.90;;;;;;5073487;28;20032;-79
2022/04/05 00:46:08;;;;;;;4.60;2.90;;;24.20;99.90;;;;;;5074060;28;20492;-78
2022/04/05 00:48:49;;;;;;;4.50;2.90;;;24.30;99.90;;;;;;5074462;28;20060;-78
2022/04/05 00:51:18;;;;;;;5.72;3.10;;;24.40;99.90;;;;;;5075368;28;20039;-78
2022/04/05 00:53:51;;;;;;;4.40;3.08;;;24.50;99.90;;;;;;5074288;28;20082;-78
2022/04/05 00:56:20;;;;;;;3.35;2.90;;;24.50;99.90;;;;;;5074530;28;20029;-78
2022/04/05 00:58:50;;;;;;;4.63;2.80;;;24.60;99.90;;;;;;5074572;28;20387;-78
2022/04/05 01:01:19;;;;;;;4.93;2.58;;;24.60;99.90;;;;;;5074373;28;20020;-78
2022/04/05 01:03:50;;;;;;;3.58;2.58;;;24.60;99.90;;;;;;5072869;28;20049;-78
2022/04/05 01:06:39;;;;;;;4.60;2.90;;;24.70;99.90;;;;;;5073108;28;20025;-79
2022/04/05 01:09:09;;;;;;;3.25;2.67;;;24.90;99.90;;;;;;5074279;28;20032;-78
2022/04/05 01:11:37;;;;;;;5.10;2.88;;;25.00;99.90;;;;;;5074559;28;20013;-78
2022/04/05 01:14:05;;;;;;;4.65;2.60;;;24.80;99.90;;;;;;5072782;28;20032;-78
2022/04/05 01:16:35;;;;;;;4.55;2.90;;;24.80;99.90;;;;;;5072877;28;20366;-77
2022/04/05 01:19:02;;;;;;;4.75;2.75;;;24.90;99.90;;;;;;5072787;28;20059;-78
2022/04/05 01:21:29;;;;;;;3.28;2.60;;;25.20;99.90;;;;;;5073247;28;20021;-78
2022/04/05 01:24:16;;;;;;;4.05;2.90;;;25.30;99.90;;;;;;5073966;28;20092;-78
2022/04/05 01:26:46;;;;;;;2.67;2.47;;;25.30;99.90;;;;;;5074011;28;20029;-76
2022/04/05 01:29:16;;;;;;;3.22;2.45;;;25.30;99.90;;;;;;5074031;28;20036;-78
2022/04/05 01:31:48;;;;;;;4.20;2.35;;;25.20;99.90;;;;;;5073887;28;20024;-79
2022/04/05 01:34:18;;;;;;;2.95;2.17;;;25.30;99.90;;;;;;5072521;28;20078;-77
2022/04/05 01:36:51;;;;;;;4.35;2.30;;;25.50;99.90;;;;;;5072358;28;20111;-77
2022/04/05 01:39:21;;;;;;;3.92;2.30;;;25.50;99.90;;;;;;5072375;28;20488;-75
2022/04/05 01:41:54;;;;;;;3.83;2.38;;;25.50;99.90;;;;;;5073601;28;20024;-75
2022/04/05 01:44:21;;;;;;;3.60;2.22;;;25.70;99.90;;;;;;5073579;28;20485;-76
2022/04/05 01:46:49;;;;;;;5.05;2.35;;;25.60;99.90;;;;;;5073613;28;20503;-76
2022/04/05 01:49:17;;;;;;;4.22;2.25;;;25.60;99.90;;;;;;5071766;28;20435;-75
2022/04/05 01:51:45;;;;;;;3.65;1.90;;;25.80;99.90;;;;;;5071692;28;20108;-76
2022/04/05 01:54:15;;;;;;;5.07;2.15;;;26.00;99.90;;;;;;5073241;28;20024;-75
2022/04/05 01:56:51;;;;;;;4.03;2.15;;;26.30;99.90;;;;;;5073099;28;20103;-76
2022/04/05 01:59:26;;;;;;;5.43;2.13;;;26.40;99.90;;;;;;5071768;28;20028;-76
2022/04/05 02:01:53;;;;;;;3.45;1.85;;;26.20;99.90;;;;;;5073235;28;20481;-75
2022/04/05 02:04:21;;;;;;;4.65;2.15;;;26.30;99.70;;;;;;5072781;28;20052;-76
2022/04/05 02:06:49;;;;;;;2.30;1.55;;;26.50;99.80;;;;;;5071508;28;20040;-76
2022/04/05 02:09:17;;;;;;;4.50;1.90;;;26.40;99.70;;;;;;5072872;28;20385;-75
2022/04/05 02:11:47;;;;;;;4.30;1.67;;;26.70;99.90;;;;;;5072934;28;20025;-74
2022/04/05 02:14:16;;;;;;;2.20;1.88;;;26.80;99.90;;;;;;5072648;28;20106;-77
2022/04/05 02:16:43;;;;;;;4.97;1.70;;;26.70;99.20;;;;;;5071533;28;20433;-74
2022/04/05 02:19:11;;;;;;;3.63;1.63;;;26.60;99.50;;;;;;5071256;28;20038;-74
2022/04/05 02:21:39;;;;;;;6.20;2.10;;;26.60;99.90;;;;;;5071401;28;20017;-75
2022/04/05 02:24:06;;;;;;;2.22;1.50;;;26.90;99.90;;;;;;5072628;28;20031;-75
2022/04/05 02:26:34;;;;;;;2.90;1.35;;;26.80;99.90;;;;;;5072606;28;20029;-75
2022/04/05 02:29:01;;;;;;;3.47;1.50;;;27.00;99.90;;;;;;5071046;28;20397;-75
2022/04/05 02:31:28;;;;;;;4.13;1.90;;;26.90;99.90;;;;;;5071214;28;20098;-76
2022/04/05 02:33:56;;;;;;;4.75;1.50;;;26.90;99.90;;;;;;5070984;28;20032;-76
2022/04/05 02:36:23;;;;;;;2.90;1.45;;;27.10;99.90;;;;;;5071234;28;20388;-77
2022/04/05 02:38:51;;;;;;;2.60;1.80;;;27.20;99.90;;;;;;5072496;28;20535;-77
2022/04/05 02:41:18;;;;;;;3.83;1.83;;;27.30;99.90;;;;;;5071172;28;20032;-77
2022/04/05 02:43:45;;;;;;;2.35;1.67;;;27.30;99.90;;;;;;5072266;28;20024;-77
2022/04/05 02:46:13;;;;;;;3.47;1.75;;;27.20;99.50;;;;;;5071008;28;20021;-76
2022/04/05 02:48:43;;;;;;;3.58;1.70;;;27.20;99.90;;;;;;5072300;28;20024;-76
2022/04/05 02:51:14;;;;;;;7.97;1.77;;;27.10;99.90;;;;;;5072287;28;20027;-77
2022/04/05 02:53:42;;;;;;;4.05;2.00;;;27.40;99.90;;;;;;5072183;28;20055;-76
2022/04/05 02:56:10;;;;;;;2.97;1.52;;;27.60;99.90;;;;;;5070722;28;20029;-77
2022/04/05 02:58:38;;;;;;;4.82;1.92;;;27.50;99.90;;;;;;5070754;28;20081;-76
2022/04/05 03:01:06;;;;;;;6.30;1.95;;;27.60;99.90;;;;;;5071997;28;20048;-77
2022/04/05 03:03:34;;;;;;;5.38;1.60;;;27.70;99.90;;;;;;5070605;28;20028;-77
2022/04/05 03:06:02;;;;;;;5.10;1.50;;;27.50;99.90;;;;;;5072081;28;20480;-77
2022/04/05 03:08:30;;;;;;;5.05;2.13;;;27.60;99.90;;;;;;5072092;28;20032;-76
2022/04/05 03:10:57;;;;;;;4.43;1.40;;;27.70;99.90;;;;;;5070648;28;20385;-75
2022/04/05 03:13:25;;;;;;;5.25;1.83;;;27.60;99.90;;;;;;5072036;28;20027;-76
2022/04/05 03:15:52;;;;;;;2.60;1.60;;;27.80;99.90;;;;;;5072000;28;20017;-77
2022/04/05 03:18:19;;;;;;;5.35;1.67;;;27.80;99.90;;;;;;5070570;28;20032;-76
2022/04/05 03:20:47;;;;;;;3.08;1.52;;;27.90;99.90;;;;;;5070580;28;20366;-76
2022/04/05 03:23:14;;;;;;;4.45;1.70;;;28.10;99.90;;;;;;5072100;28;20028;-77
2022/04/05 03:25:41;;;;;;;3.67;1.60;;;27.70;99.90;;;;;;5071787;28;20108;-77
2022/04/05 03:28:09;;;;;;;5.85;1.83;;;27.70;99.90;;;;;;5070588;28;20392;-77
2022/04/05 03:30:36;;;;;;;5.70;1.90;;;27.80;99.90;;;;;;5071810;28;20028;-77
2022/04/05 03:33:03;;;;;;;6.00;1.63;;;27.70;99.90;;;;;;5071793;28;20028;-77
2022/04/05 03:35:31;;;;;;;5.88;1.77;;;27.60;99.90;;;;;;5070462;28;20024;-77
2022/04/05 03:37:59;;;;;;;5.85;1.77;;;27.40;99.90;;;;;;5070449;28;20473;-76
2022/04/05 03:40:27;;;;;;;4.43;1.70;;;27.60;99.90;;;;;;5071541;28;20025;-77
2022/04/05 03:42:54;;;;;;;8.60;2.40;;;27.70;99.90;;;;;;5070291;28;20056;-77
2022/04/05 03:45:22;;;;;;;6.32;2.13;;;27.80;99.90;;;;;;5070420;28;20384;-77
2022/04/05 03:47:49;;;;;;;6.78;1.80;;;27.90;99.90;;;;;;5070503;28;20092;-77
2022/04/05 03:50:18;;;;;;;5.55;2.08;;;28.10;99.90;;;;;;5070506;28;20032;-77
2022/04/05 03:52:45;;;;;;;4.78;1.80;;;28.20;99.90;;;;;;5071590;28;20025;-77
2022/04/05 03:55:13;;;;;;;5.28;1.50;;;28.20;99.90;;;;;;5070466;28;20370;-77
2022/04/05 03:57:41;;;;;;;6.70;2.05;;;28.10;99.90;;;;;;5070301;28;20028;-77
2022/04/05 04:00:09;;;;;;;4.25;1.50;;;28.00;99.90;;;;;;5070324;28;20111;-77
2022/04/05 04:02:36;;;;;;;7.72;2.03;;;28.10;99.90;;;;;;5070222;28;20051;-77
2022/04/05 04:05:04;;;;;;;4.80;1.50;;;28.00;99.90;;;;;;5071437;28;20040;-76
2022/04/05 04:07:31;;;;;;;6.22;1.38;;;27.70;99.90;;;;;;5070210;28;20021;-75
2022/04/05 04:10:03;;;;;;;4.30;1.80;;;27.20;99.90;;;;;;5071568;28;20024;-74
2022/04/05 04:12:31;;;;;;;6.47;1.73;;;27.10;99.90;;;;;;5071411;28;20423;-76
2022/04/05 04:14:59;;;;;;;5.32;1.38;;;27.00;99.90;;;;;;5075043;28;20020;-74
2022/04/05 04:17:26;;;;;;;4.20;1.55;;;27.20;99.90;;;;;;5073821;28;20112;-74
2022/04/05 04:19:54;;;;;;;6.15;1.63;;;27.20;99.90;;;;;;5075160;28;20021;-74
2022/04/05 04:22:21;;;;;;;7.50;2.10;;;27.40;99.90;;;;;;5074997;28;20021;-74
2022/04/05 04:24:49;;;;;;;6.55;1.60;;;27.40;99.90;;;;;;5075112;28;20028;-74
2022/04/05 04:27:16;;;;;;;9.88;2.00;;;27.20;99.90;;;;;;5073637;28;20016;-74
2022/04/05 04:29:43;;;;;;;4.75;1.52;;;26.60;99.90;;;;;;5073705;28;20024;-76
2022/04/05 04:32:11;;;;;;;7.88;1.63;;;26.50;99.90;;;;;;5074860;28;20504;-76
2022/04/05 04:34:38;;;;;;;5.95;1.67;;;26.00;99.90;;;;;;5073484;28;20106;-76
2022/04/05 04:37:06;;;;;;;4.90;1.40;;;25.70;99.90;;;;;;5074857;28;20021;-76
2022/04/05 04:39:34;;;;;;;3.70;1.60;;;26.00;99.90;;;;;;5074744;28;20020;-76
2022/04/05 04:42:01;;;;;;;9.07;2.17;;;26.10;99.90;;;;;;5073439;28;20446;-78
2022/04/05 04:44:29;;;;;;;4.13;1.50;;;26.30;99.90;;;;;;5074798;28;20021;-75
2022/04/05 04:46:56;;;;;;;5.95;1.33;;;26.40;99.90;;;;;;5074332;28;20388;-76
2022/04/05 04:49:23;;;;;;;7.32;1.60;;;26.30;99.90;;;;;;5074546;28;20028;-75
2022/04/05 04:51:51;;;;;;;4.15;1.35;;;26.20;99.90;;;;;;5073054;28;20028;-76
2022/04/05 04:54:18;;;;;;;5.47;1.52;;;25.90;99.90;;;;;;5074370;28;20027;-75
2022/04/05 04:56:45;;;;;;;5.07;1.10;;;26.00;99.90;;;;;;5073024;28;20020;-75
2022/04/05 04:59:13;;;;;;;5.53;1.80;;;26.20;99.90;;;;;;5074253;28;20056;-76
2022/04/05 05:01:40;;;;;;;9.10;2.00;;;26.20;99.90;;;;;;5074246;28;20031;-76
2022/04/05 05:04:07;;;;;;;4.20;1.45;;;26.30;99.90;;;;;;5073946;28;20044;-75
2022/04/05 05:06:35;;;;;;;9.35;1.88;;;26.10;99.90;;;;;;5072899;28;20346;-76
2022/04/05 05:09:02;;;;;;;6.45;1.85;;;25.90;99.90;;;;;;5074220;28;20059;-76
2022/04/05 05:11:29;;;;;;;3.38;1.30;;;26.00;99.90;;;;;;5072775;28;20024;-76
2022/04/05 05:13:57;;;;;;;4.85;1.42;;;25.90;99.90;;;;;;5072588;28;20035;-79
2022/04/05 05:16:24;;;;;;;6.28;1.65;;;25.70;99.90;;;;;;5074143;28;20063;-77
2022/04/05 05:18:52;;;;;;;6.47;1.58;;;25.70;99.90;;;;;;5073965;28;20387;-76
2022/04/05 05:21:19;;;;;;;4.38;1.48;;;25.70;99.90;;;;;;5074033;28;20028;-77
2022/04/05 05:23:47;;;;;;;6.85;1.70;;;25.60;99.90;;;;;;5073854;28;20048;-77
2022/04/05 05:26:15;;;;;;;6.75;2.00;;;25.70;99.90;;;;;;5071423;28;20024;-77
2022/04/05 05:28:43;;;;;;;7.55;1.85;;;25.40;99.90;;;;;;5073781;28;20020;-76
2022/04/05 05:31:10;;;;;;;8.82;1.80;;;25.50;99.90;;;;;;5073815;28;20029;-76
2022/04/05 05:33:37;;;;;;;6.70;1.38;;;25.60;99.90;;;;;;5073613;28;20024;-76
2022/04/05 05:36:05;;;;;;;6.80;1.48;;;25.60;99.90;;;;;;5073810;28;20365;-76
2022/04/05 05:38:33;;;;;;;5.50;1.58;;;25.40;99.90;;;;;;5073605;28;20013;-77
2022/04/05 05:41:00;;;;;;;7.13;1.40;;;25.50;99.90;;;;;;5073574;28;20021;-77
2022/04/05 05:43:28;;;;;;;6.25;1.38;;;25.30;99.90;;;;;;5073486;28;20016;-76
2022/04/05 05:45:55;;;;;;;7.60;1.42;;;25.00;99.90;;;;;;5073459;28;20056;-76
2022/04/05 05:48:22;;;;;;;3.85;1.05;;;25.00;99.90;;;;;;5073421;28;20024;-76
2022/04/05 05:50:51;;;;;;;4.55;1.45;;;24.90;99.90;;;;;;5073354;28;20020;-76
2022/04/05 05:53:18;;;;;;;5.70;1.40;;;24.90;99.90;;;;;;5073347;28;20047;-77
2022/04/05 05:55:46;;;;;;;5.93;1.20;;;24.80;99.90;;;;;;5073366;28;20100;-76
2022/04/05 05:58:14;;;;;;;5.93;1.75;;;24.50;99.90;;;;;;5071988;28;20028;-77
2022/04/05 06:00:42;;;;;;;6.40;1.58;;;24.50;99.90;;;;;;5071792;28;20021;-78
2022/04/05 06:03:11;;;;;;;5.40;1.55;;;24.50;99.90;;;;;;5073106;28;20032;-77
2022/04/05 06:05:38;;;;;;;4.00;1.37;;;24.40;99.90;;;;;;5071473;28;20135;-77
2022/04/05 06:08:06;;;;;;;6.28;1.23;;;24.40;99.90;;;;;;5071776;28;20032;-76
2022/04/05 06:10:34;;;;;;;5.78;1.77;;;24.60;99.90;;;;;;5073127;28;20557;-78
2022/04/05 06:13:02;;;;;;;5.35;1.60;;;24.50;99.90;;;;;;5072944;28;20024;-77
2022/04/05 06:15:29;;;;;;;4.22;1.23;;;24.30;99.90;;;;;;5071586;28;20031;-78
2022/04/05 06:18:00;;;;;;;5.55;1.20;;;24.40;99.90;;;;;;5071471;28;20085;-76
2022/04/05 06:20:28;;;;;;;;;;;24.40;99.90;;;;;;5073228;28;20069;-77
2022/04/05 06:22:59;;;;;;;5.57;1.30;;;24.40;99.90;;;;;;5072818;28;20003;-75
2022/04/05 06:25:34;;;;;;;8.15;1.40;;;24.30;99.90;;;;;;5072743;28;20028;-75
2022/04/05 06:28:06;;;;;;;5.38;1.30;;;24.20;99.90;;;;;;5071472;28;20052;-75
2022/04/05 06:30:35;;;;;;;4.80;1.40;;;24.20;99.90;;;;;;5071246;28;20028;-76
2022/04/05 06:33:10;;;;;;;3.67;1.00;;;23.90;99.90;;;;;;5072556;28;20024;-75
2022/04/05 06:35:39;;;;;;;4.18;1.67;;;23.80;99.90;;;;;;5072214;28;20020;-76
2022/04/05 06:38:07;;;;;;;3.45;1.48;;;23.80;99.90;;;;;;5071357;28;20031;-78
2022/04/05 06:40:34;;;;;;;4.93;1.10;;;23.70;99.90;;;;;;5071179;28;20063;-75
2022/04/05 06:43:02;;;;;;;4.85;1.00;;;23.60;99.90;;;;;;5072427;28;20188;-76
2022/04/05 06:45:30;;;;;;;5.18;1.17;;;23.50;99.90;;;;;;5070969;28;20033;-76
2022/04/05 06:47:57;;;;;;;5.07;1.30;;;23.40;99.90;;;;;;5070906;28;20029;-76
2022/04/05 06:50:25;;;;;;;6.57;1.50;;;23.30;99.90;;;;;;5070939;28;20033;-76
2022/04/05 06:52:55;;;;;;;4.85;1.42;;;23.10;99.90;;;;;;5072298;28;20494;-75
2022/04/05 06:55:22;;;;;;;5.35;1.60;;;23.10;99.90;;;;;;5072258;28;20488;-76
2022/04/05 06:57:50;;;;;;;5.15;1.30;;;23.10;99.90;;;;;;5070903;28;20056;-76
2022/04/05 07:00:19;;;;;;;3.92;1.10;;;23.00;99.90;;;;;;5070577;28;20090;-76
2022/04/05 07:02:47;;;;;;;2.85;1.40;;;22.90;99.90;;;;;;5072029;28;20028;-76
2022/04/05 07:05:14;;;;;;;4.55;1.30;;;22.80;99.90;;;;;;5071892;28;20053;-76
2022/04/05 07:07:42;;;;;;;4.15;1.42;;;22.80;99.90;;;;;;5071981;28;20016;-76
2022/04/05 07:10:14;;;;;;;5.53;1.17;;;22.70;99.90;;;;;;5072117;28;20020;-76
2022/04/05 07:12:43;;;;;;;6.18;1.50;;;22.60;99.90;;;;;;5072026;28;20017;-76
2022/04/05 07:15:10;;;;;;;4.85;1.40;;;22.60;99.90;;;;;;5072138;28;20125;-76
2022/04/05 07:17:39;;;;;;;6.03;1.60;;;22.50;99.90;;;;;;5071715;28;20024;-76
2022/04/05 07:20:09;;;;;;;5.90;1.50;;;22.40;99.90;;;;;;5070534;28;20502;-75
2022/04/05 07:22:48;;;;;;;6.25;1.70;;;22.30;99.90;;;;;;5071785;28;20373;-76
2022/04/05 07:25:19;;;;;;;7.20;1.80;;;22.20;99.90;;;;;;5070504;28;20020;-76
2022/04/05 07:27:47;;;;;;;5.07;1.40;;;22.10;99.90;;;;;;5070316;28;20069;-76
2022/04/05 07:30:15;;;;;;;5.85;1.70;;;22.00;99.90;;;;;;5070553;28;20024;-77
2022/04/05 07:32:45;;;;;;;4.75;1.75;;;21.90;99.90;;;;;;5070220;28;20031;-76
2022/04/05 07:35:17;;;;;;;4.15;1.45;;;21.90;99.90;;;;;;5071799;28;20024;-76
2022/04/05 07:37:45;;;;;;;7.57;1.60;;;21.90;99.90;;;;;;5070216;28;20029;-76
2022/04/05 07:40:13;;;;;;;4.88;2.17;;;21.80;99.90;;;;;;5071767;28;20099;-76
2022/04/05 07:42:46;;;;;;;4.25;1.50;;;21.70;99.90;;;;;;5070159;28;20048;-76
2022/04/05 07:45:16;;;;;;;3.70;1.35;;;21.70;99.90;;;;;;5070676;28;20056;-76
2022/04/05 07:47:45;;;;;;;6.95;1.88;;;21.70;99.90;;;;;;5070300;28;20025;-76
2022/04/05 07:50:13;;;;;;;5.20;1.30;;;21.60;99.90;;;;;;5074214;28;20035;-76
2022/04/05 07:52:40;;;;;;;3.78;1.10;;;21.50;99.90;;;;;;5074049;28;20115;-76
2022/04/05 07:55:08;;;;;;;4.15;1.30;;;21.50;99.90;;;;;;5075528;28;20070;-76
2022/04/05 07:57:40;;;;;;;4.50;1.45;;;21.50;99.90;;;;;;5075359;28;20064;-75
2022/04/05 08:00:08;;;;;;;3.70;1.50;;;21.40;99.90;;;;;;5073986;28;20073;-76
2022/04/05 08:02:35;;;;;;;3.72;1.30;;;21.30;99.90;;;;;;5075182;28;20020;-75
2022/04/05 08:05:03;;;;;;;2.55;1.38;;;21.30;99.90;;;;;;5072691;28;20041;-76
2022/04/05 08:07:31;;;;;;;3.20;1.27;;;21.30;99.90;;;;;;5073886;28;20021;-76
2022/04/05 08:09:58;;;;;;;2.28;1.08;;;21.20;99.90;;;;;;5073879;28;20024;-76
2022/04/05 08:12:25;;;;;;;3.78;1.48;;;21.20;99.90;;;;;;5073793;28;20411;-76
2022/04/05 08:14:53;;;;;;;4.00;1.38;;;21.20;99.90;;;;;;5072529;28;20033;-76
2022/04/05 08:17:20;;;;;;;4.95;1.30;;;21.20;99.90;;;;;;5073988;28;20039;-76
2022/04/05 08:19:47;;;;;;;2.70;1.20;;;21.10;99.90;;;;;;5072456;28;20542;-75
2022/04/05 08:22:15;;;;;;;4.72;1.20;;;21.10;99.90;;;;;;5073839;28;20043;-76
2022/04/05 08:24:42;;;;;;;4.10;1.50;;;21.10;99.90;;;;;;5072416;28;20119;-75
2022/04/05 08:27:09;;;;;;;2.92;1.00;;;21.10;99.90;;;;;;5073816;28;20016;-75
2022/04/05 08:29:40;;;;;;;5.38;1.25;;;21.10;99.90;;;;;;5073698;28;20024;-76
2022/04/05 08:32:07;;;;;;;2.03;1.20;;;21.00;99.90;;;;;;5073674;28;20036;-76
2022/04/05 08:34:38;;;;;;;4.63;1.40;;;21.00;99.90;;;;;;5073469;28;20055;-74
2022/04/05 08:37:05;;;;;;;;;;;21.00;99.90;;;;;;5074000;28;20412;-74
2022/04/05 08:39:32;;;;;;;2.20;1.00;;;21.10;99.90;;;;;;5073578;28;19950;-77
2022/04/05 08:42:00;;;;;;;3.80;1.40;;;21.00;99.90;;;;;;5072040;28;20024;-75
2022/04/05 08:44:28;;;;;;;5.15;1.58;;;21.00;99.90;;;;;;5073434;28;20024;-74
2022/04/05 08:46:57;;;;;;;4.30;1.10;;;20.90;99.90;;;;;;5071915;28;20496;-75
2022/04/05 08:49:24;;;;;;;3.60;1.85;;;20.80;99.90;;;;;;5072087;28;20413;-75
2022/04/05 08:51:51;;;;;;;3.40;1.83;;;20.80;99.90;;;;;;5073395;28;20086;-75
2022/04/05 08:54:19;;;;;;;4.28;1.52;;;20.70;99.90;;;;;;5071958;28;20039;-75
2022/04/05 08:56:47;;;;;;;3.45;1.33;;;20.70;99.90;;;;;;5073258;28;20091;-75
2022/04/05 08:59:17;;;;;;;3.60;1.70;;;20.70;99.90;;;;;;5071838;28;20048;-75
2022/04/05 09:01:44;;;;;;;;;;;20.70;99.90;;;;;;5073759;28;20366;-75
2022/04/05 09:04:12;;;;;;;2.67;1.30;;;20.70;99.90;;;;;;4972918;28;2831430;-75
2022/04/05 09:06:40;;;;;;;4.60;1.38;;;20.70;99.90;;;;;;5074308;28;20106;-75
2022/04/05 09:09:14;;;;;;;5.60;1.83;;;20.70;99.90;;;;;;5073020;28;20029;-75
2022/04/05 09:11:56;;;;;;;2.42;1.30;;;20.70;99.90;;;;;;5072840;28;20514;-74
2022/04/05 09:14:30;;;;;;;4.15;1.60;;;20.70;99.90;;;;;;5074065;28;20032;-76
2022/04/05 09:17:09;;;;;;;4.20;1.45;;;20.70;99.90;;;;;;5072831;28;20021;-75
2022/04/05 09:19:49;;;;;;;4.18;1.27;;;20.70;99.90;;;;;;5072711;28;20024;-75
2022/04/05 09:22:33;;;;;;;2.90;1.40;;;20.70;99.90;;;;;;5072706;28;20028;-74
2022/04/05 09:25:10;;;;;;;4.75;1.40;;;20.80;99.90;;;;;;5074110;28;20024;-74
2022/04/05 09:28:08;;;;;;;3.22;1.23;;;20.80;99.90;;;;;;5073878;28;20051;-75
2022/04/05 09:30:36;;;;;;;5.65;1.70;;;20.80;99.90;;;;;;5064566;28;20029;-74
2022/04/05 09:33:04;;;;;;;3.70;1.10;;;20.80;99.90;;;;;;5073719;28;20074;-74
2022/04/05 09:35:44;;;;;;;2.45;1.10;;;20.70;99.90;;;;;;5073582;28;20058;-74
2022/04/05 09:38:14;;;;;;;3.88;1.23;;;20.70;99.90;;;;;;5072237;28;20120;-75
2022/04/05 09:40:43;;;;;;;3.85;1.50;;;20.70;99.90;;;;;;5072178;28;20397;-75
2022/04/05 09:43:12;;;;;;;3.40;1.40;;;20.60;99.90;;;;;;5073646;28;20429;-75
2022/04/05 09:46:04;;;;;;;6.30;1.58;;;20.60;99.90;;;;;;5073543;28;20048;-75
2022/04/05 09:48:39;;;;;;;3.35;1.13;;;20.50;99.90;;;;;;5073667;28;20050;-75
2022/04/05 09:51:10;;;;;;;3.92;1.30;;;20.50;99.90;;;;;;5073607;28;20025;-74
2022/04/05 09:53:44;;;;;;;2.53;1.00;;;20.40;99.90;;;;;;5072041;28;20028;-75
2022/04/05 09:56:19;;;;;;;2.25;1.23;;;20.40;99.90;;;;;;5073503;28;20031;-75
2022/04/05 09:58:51;;;;;;;5.75;1.55;;;20.40;99.90;;;;;;5073387;28;20016;-74
2022/04/05 10:01:24;;;;;;;4.25;1.50;;;20.40;99.90;;;;;;5073486;28;20107;-74
2022/04/05 10:04:06;;;;;;;3.70;1.13;;;20.40;99.90;;;;;;5073176;28;20106;-74
2022/04/05 10:06:38;;;;;;;4.45;1.40;;;20.40;99.90;;;;;;5073641;28;20028;-74
2022/04/05 10:09:06;;;;;;;5.65;1.42;;;20.40;99.90;;;;;;5073161;28;20021;-73
2022/04/05 10:11:37;;;;;;;4.78;1.15;;;20.50;99.90;;;;;;5071222;28;20045;-74
2022/04/05 10:14:05;;;;;;;5.50;1.70;;;20.60;99.90;;;;;;5073134;28;20032;-74
2022/04/05 10:16:34;;;;;;;7.32;1.48;;;20.60;99.90;;;;;;5071862;28;20025;-75
2022/04/05 10:19:05;;;;;;;4.75;1.23;;;20.70;99.90;;;;;;5071828;28;20423;-75
2022/04/05 10:21:37;;;;;;;3.90;1.05;;;20.60;99.90;;;;;;5071764;28;20027;-75
2022/04/05 10:24:07;;;;;;;8.27;1.45;;;20.60;99.90;;;;;;5071716;28;20138;-75
2022/04/05 10:26:37;;;;;;;6.38;1.20;;;20.60;99.90;;;;;;5071891;28;20028;-75
2022/04/05 10:29:10;;;;;;;5.07;1.40;;;20.50;99.90;;;;;;5071571;28;20040;-75
2022/04/05 10:31:49;;;;;;;5.15;1.30;;;20.40;99.90;;;;;;5072854;28;20020;-77
2022/04/05 10:34:22;;;;;;;5.65;1.50;;;20.40;99.90;;;;;;5072652;28;20099;-74
2022/04/05 10:37:18;;;;;;;6.03;1.83;;;20.30;99.90;;;;;;5071378;28;20025;-75
2022/04/05 10:39:57;;;;;;;4.55;1.48;;;20.30;99.90;;;;;;5072805;28;20027;-75
2022/04/05 10:42:33;;;;;;;4.60;1.30;;;20.30;99.90;;;;;;5072727;28;20059;-75
2022/04/05 10:45:16;;;;;;;4.57;1.38;;;20.30;99.90;;;;;;5071196;28;20078;-74
2022/04/05 10:48:01;;;;;;;6.05;1.70;;;20.20;99.90;;;;;;5072616;28;20017;-74
2022/04/05 10:50:29;;;;;;;3.47;1.27;;;20.20;99.90;;;;;;5072333;28;20043;-74
2022/04/05 10:53:22;;;;;;;5.75;1.63;;;20.20;99.90;;;;;;5071076;28;20495;-74
2022/04/05 10:56:07;;;;;;;6.43;1.42;;;20.10;99.90;;;;;;5072505;28;20016;-75
2022/04/05 10:58:55;;;;;;;3.95;1.10;;;20.10;99.90;;;;;;5070993;28;20020;-74
2022/04/05 11:01:43;;;;;;;4.78;1.40;;;20.10;99.90;;;;;;5072441;28;20021;-73
2022/04/05 11:04:17;;;;;;;3.85;1.40;;;20.10;99.90;;;;;;5072107;28;20131;-74
2022/04/05 11:09:43;;;;;;;7.25;5.35;;;20.10;99.90;;;;;;5072512;28;20028;-72
2022/04/05 11:12:16;;;;;;;10.25;7.57;;;20.10;99.90;;;;;;5072131;28;20040;-72
2022/04/05 11:14:51;;;;;;;12.85;8.95;;;20.00;99.90;;;;;;5072144;28;20103;-73
2022/04/05 11:17:22;;;;;;;10.68;8.23;;;20.00;99.90;;;;;;5072141;28;20104;-74
2022/04/05 11:19:52;;;;;;;9.13;7.43;;;20.00;99.90;;;;;;5072169;28;20025;-74
2022/04/05 11:22:23;;;;;;;7.38;4.90;;;20.00;99.90;;;;;;5071432;28;20023;-74
2022/04/05 11:24:56;;;;;;;8.63;3.72;;;20.00;99.90;;;;;;5071750;28;20505;-73
2022/04/05 11:27:29;;;;;;;5.82;3.30;;;20.00;99.90;;;;;;5070432;28;20052;-73
2022/04/05 11:30:22;;;;;;;5.20;2.22;;;20.00;99.90;;;;;;5070460;28;20413;-74
2022/04/05 11:33:16;;;;;;;5.45;2.40;;;20.00;99.90;;;;;;5069325;28;20085;-74
2022/04/05 11:35:50;;;;;;;7.63;2.17;;;19.90;99.90;;;;;;5071727;28;20013;-74
2022/04/05 11:38:20;;;;;;;4.60;1.77;;;19.90;99.90;;;;;;5070336;28;20366;-75
2022/04/05 11:40:50;;;;;;;4.68;1.95;;;19.80;99.90;;;;;;5070360;28;20074;-74
2022/04/05 11:43:22;;;;;;;3.17;1.47;;;19.90;99.90;;;;;;5071545;28;20032;-75
2022/04/05 11:45:51;;;;;;;2.72;1.50;;;19.80;99.90;;;;;;5070126;28;20027;-73
2022/04/05 11:48:23;;;;;;;4.50;1.75;;;19.80;99.90;;;;;;5070269;28;20557;-74
2022/04/05 11:50:51;;;;;;;4.35;1.60;;;19.70;99.90;;;;;;5070248;28;20487;-73
2022/04/05 11:53:29;;;;;;;3.72;1.85;;;19.80;99.90;;;;;;5071468;28;20477;-73
2022/04/05 11:56:25;;;;;;;4.63;1.30;;;19.80;99.90;;;;;;5071880;28;20020;-74
2022/04/05 11:58:57;;;;;;;4.28;1.30;;;19.80;99.90;;;;;;5069046;28;20440;-74
2022/04/05 12:01:29;;;;;;;5.40;1.70;;;19.80;99.90;;;;;;5071532;28;20302;-74
2022/04/05 12:04:02;;;;;;;5.03;1.42;;;19.80;99.90;;;;;;5071034;28;20460;-73
2022/04/05 12:06:32;;;;;;;5.10;1.45;;;19.80;99.90;;;;;;5071587;28;20028;-74
2022/04/05 12:09:01;;;;;;;;;;;19.80;99.90;;;;;;5070394;28;20064;-74
2022/04/05 12:11:31;;;;;;;5.82;1.42;;;19.90;99.90;;;;;;5070054;28;20280;-75
2022/04/05 12:14:09;;;;;;;4.22;1.30;;;19.90;99.90;;;;;;5069911;28;20028;-74
2022/04/05 12:16:50;;;;;;;4.43;1.40;;;19.90;99.90;;;;;;5069978;28;20025;-76
2022/04/05 12:19:28;;;;;;;4.80;1.30;;;20.00;99.90;;;;;;5070152;28;20025;-75
2022/04/05 12:22:01;;;;;;;3.83;1.33;;;20.10;99.90;;;;;;5071583;28;20071;-75
2022/04/05 12:24:29;;;;;;;4.13;1.38;;;20.20;99.90;;;;;;5071399;28;20028;-75
2022/04/05 12:27:02;;;;;;;3.63;1.30;;;20.20;99.90;;;;;;5070060;28;20036;-75
2022/04/05 12:29:32;;;;;;;6.43;1.58;;;20.20;99.90;;;;;;5071451;28;20025;-75
2022/04/05 12:32:07;;;;;;;5.68;1.15;;;20.10;99.90;;;;;;5070214;28;20421;-77
2022/04/05 12:34:35;;;;;;;3.78;1.27;;;20.10;99.90;;;;;;5071324;28;20431;-77
2022/04/05 12:37:08;;;;;;;5.38;1.42;;;20.10;99.90;;;;;;5073638;28;20020;-74
2022/04/05 12:39:50;;;;;;;7.15;1.85;;;20.20;99.90;;;;;;5074742;28;20074;-74
2022/04/05 12:42:21;;;;;;;4.50;1.25;;;20.20;99.90;;;;;;5074883;28;20028;-74
2022/04/05 12:44:57;;;;;;;6.45;1.30;;;20.20;99.90;;;;;;5073374;28;20107;-74
2022/04/05 12:47:27;;;;;;;5.32;1.08;;;20.20;99.90;;;;;;5073230;28;20135;-74
2022/04/05 12:50:04;;;;;;;4.28;1.13;;;20.30;99.90;;;;;;5073232;28;20024;-74
2022/04/05 12:52:32;;;;;;;4.82;1.08;;;20.20;99.90;;;;;;5074980;28;20107;-75
2022/04/05 12:55:02;;;;;;;3.75;1.00;;;20.20;99.90;;;;;;5073186;28;20032;-74
2022/04/05 12:57:47;;;;;;;3.42;0.90;;;20.20;99.90;;;;;;5074819;28;20099;-75
2022/04/05 13:00:24;;;;;;;5.97;1.17;;;20.20;99.90;;;;;;5074375;28;20060;-75
2022/04/05 13:03:00;;;;;;;3.00;0.70;;;20.10;99.90;;;;;;5072953;28;20025;-75
2022/04/05 13:08:30;;;;;;;6.45;0.70;;;20.10;99.90;;;;;;5074619;28;20059;-74
2022/04/05 13:10:58;;;;;;;3.28;1.00;;;20.10;99.90;;;;;;5072814;28;20024;-73